Medlin's Ranch, Nevada Weather observations

Data are for observation ending at time listed.
 Day   Time    Ave.   Ave.  Ave.  Vector   Max.   Stn.    Total    Solar   Ave.  
  of    of     Air    Rel.  Wind   Wind    Wind   Baro.  Precip.   Rad.    Soil  
Year   Day     Temp.  Hum.  Speed  Dir.    Gust   Pres.                    Temp. 
2015   (PST)    F      %     mph   deg.    mph     mb.     in.     W/m2     F   
------------------------------------------------------------------------------
  25    5:00   38.5    57    6.7   325     10.3    872     0.00       0    41.9
  25    6:00   39.5    60    5.6   312     10.9    872     0.00       0    41.6
  25    7:00   37.0    64    5.1     2     10.7    873     0.00       1    41.4
  25    8:00   38.7    63    4.7    13      9.1    873     0.00      84    41.1
  25    9:00   48.4    47    7.3    32     12.3    873     0.00     291    41.0
  25   10:00   54.9    36    7.5    13     11.8    873     0.00     444    42.0
  25   11:00   57.5    33    5.5    52     11.2    873     0.00     561    44.0
  25   12:00   61.1    29    3.7    67      9.4    872     0.00     616    46.4
  25   13:00   63.5    26    4.2   312     11.2    871     0.00     611    49.0
  25   14:00   65.6    24    4.9    32     11.8    870     0.00     545    50.9
  25   15:00   66.7    22    9.5    34     19.5    870     0.00     415    51.4
  25   16:00   67.2    22    7.6    44     13.7    870     0.00     247    51.5
  25   17:00   65.8    22    6.1    26     12.3    870     0.00      66    51.6
  25   18:00   58.9    26    3.3   352      9.0    870     0.00       0    51.5
  25   19:00   54.3    29    3.4   291      7.2    871     0.00       0    50.8
  25   20:00   55.9    28    4.5   317     12.4    871     0.00       0    49.9
  25   21:00   56.2    27    4.0   359      9.3    871     0.00       0    49.2
  25   22:00   53.4    28    3.4   304      9.1    871     0.00       0    48.7
  25   23:00   51.4    32    5.2   334     10.8    871     0.00       0    48.1
  26    0:00   46.6    38    2.2   284      4.9    871     0.00       0    47.6
  26    1:00   42.8    43    4.3   229      7.1    870     0.00       0    46.9
  26    2:00   40.6    47    3.2   282      7.0    870     0.00       0    46.2
  26    3:00   37.5    52    2.1   258      4.2    870     0.00       0    45.5
  26    4:00   37.1    53    4.0   241      6.4    870     0.00       0    44.8

Return to Medlin's Ranch, Nevada graphs page.


Western Regional Climate Center,wrcc@dri.edu